Time;durP1;ratioP1;P1;durP2;ratioP2;P2;SDS_P1;SDS_P2;PMS_P1;PMS_P2;Temp;Humidity;BMP_temperature;BMP_pressure;BME280_temperature;BME280_humidity;BME280_pressure;Samples;Min_cycle;Max_cycle;Signal;HPM_P1;HPM_P2
2023/08/26 00:00:40;;;;;;;2.47;2.03;;;23.20;99.90;;;;;;5023794;28;45128;-57
2023/08/26 00:03:07;;;;;;;2.38;2.17;;;23.20;99.90;;;;;;5017499;28;47018;-57
2023/08/26 00:05:33;;;;;;;2.25;2.00;;;23.20;99.90;;;;;;5023219;28;45182;-57
2023/08/26 00:08:02;;;;;;;2.80;1.95;;;23.20;99.90;;;;;;5023727;28;45094;-57
2023/08/26 00:10:28;;;;;;;2.45;1.88;;;23.20;99.90;;;;;;5021559;28;45323;-57
2023/08/26 00:12:55;;;;;;;3.25;2.15;;;23.20;99.90;;;;;;5021286;28;47979;-57
2023/08/26 00:15:23;;;;;;;2.38;2.03;;;23.20;99.90;;;;;;5015008;28;45238;-57
2023/08/26 00:17:50;;;;;;;2.20;1.80;;;23.20;99.90;;;;;;5023213;28;45126;-57
2023/08/26 00:20:21;;;;;;;2.40;2.00;;;23.20;99.90;;;;;;5012276;28;45343;-57
2023/08/26 00:22:48;;;;;;;3.40;2.13;;;23.20;99.90;;;;;;5021348;28;45125;-57
2023/08/26 00:25:16;;;;;;;2.13;1.75;;;23.10;99.90;;;;;;5023273;28;45218;-57
2023/08/26 00:27:43;;;;;;;2.85;2.10;;;23.10;99.90;;;;;;5022160;28;45112;-57
2023/08/26 00:30:10;;;;;;;2.50;2.03;;;23.20;99.90;;;;;;5020738;28;44794;-57
2023/08/26 00:32:37;;;;;;;2.90;2.20;;;23.10;99.90;;;;;;5009711;28;46279;-57
2023/08/26 00:35:04;;;;;;;3.45;2.03;;;23.20;99.90;;;;;;5020589;28;44802;-57
2023/08/26 00:37:32;;;;;;;2.67;2.08;;;23.20;99.90;;;;;;5015721;28;45246;-57
2023/08/26 00:39:58;;;;;;;2.33;1.92;;;23.10;99.90;;;;;;5011556;28;45303;-57
2023/08/26 00:42:26;;;;;;;2.10;1.90;;;23.10;99.90;;;;;;5010750;28;45419;-57
2023/08/26 00:44:53;;;;;;;2.42;2.00;;;23.10;99.90;;;;;;5012540;28;45228;-57
2023/08/26 00:47:20;;;;;;;2.83;2.47;;;23.10;99.90;;;;;;5011714;28;45131;-57
2023/08/26 00:49:47;;;;;;;2.50;1.88;;;23.10;99.90;;;;;;5019310;28;45077;-57
2023/08/26 00:52:14;;;;;;;2.60;1.85;;;23.10;99.90;;;;;;5012131;28;45426;-57
2023/08/26 00:54:40;;;;;;;2.47;2.05;;;23.10;99.90;;;;;;5023756;28;45103;-57
2023/08/26 00:57:09;;;;;;;2.55;1.85;;;23.10;99.90;;;;;;5019514;28;45200;-57
2023/08/26 00:59:37;;;;;;;2.45;2.05;;;23.10;99.90;;;;;;5023500;28;45243;-57
2023/08/26 01:02:05;;;;;;;2.58;2.17;;;23.10;99.90;;;;;;5020707;28;46354;-57
2023/08/26 01:04:32;;;;;;;2.22;2.03;;;23.10;99.90;;;;;;5021314;28;45062;-57
2023/08/26 01:06:59;;;;;;;2.50;1.92;;;23.10;99.90;;;;;;5023757;28;45270;-57
2023/08/26 01:09:26;;;;;;;2.63;1.73;;;23.00;99.90;;;;;;5023624;28;45141;-57
2023/08/26 01:12:01;;;;;;;2.20;1.80;;;23.10;99.90;;;;;;5020930;28;46325;-57
2023/08/26 01:14:34;;;;;;;2.53;1.80;;;23.10;99.90;;;;;;5023399;28;45139;-57
2023/08/26 01:17:04;;;;;;;2.30;1.92;;;23.10;99.90;;;;;;5024643;28;45079;-56
2023/08/26 01:19:34;;;;;;;2.00;1.70;;;23.10;99.90;;;;;;5024852;28;45091;-57
2023/08/26 01:22:05;;;;;;;2.60;1.77;;;23.10;99.90;;;;;;5023813;28;47952;-57
2023/08/26 01:24:34;;;;;;;2.40;1.48;;;23.10;99.90;;;;;;5023413;28;45314;-57
2023/08/26 01:27:01;;;;;;;2.55;2.08;;;23.10;99.90;;;;;;5026339;28;45276;-57
2023/08/26 01:29:28;;;;;;;2.47;1.70;;;23.00;99.90;;;;;;5024947;28;45338;-57
2023/08/26 01:32:00;;;;;;;2.42;1.70;;;23.00;99.90;;;;;;5022268;28;45175;-57
2023/08/26 01:34:31;;;;;;;1.88;1.58;;;23.00;99.90;;;;;;5022116;28;44700;-57
2023/08/26 01:36:59;;;;;;;1.73;1.42;;;23.00;99.90;;;;;;5024309;28;45079;-57
2023/08/26 01:39:27;;;;;;;1.50;1.40;;;23.00;99.90;;;;;;5023095;28;45098;-57
2023/08/26 01:41:57;;;;;;;2.10;1.40;;;23.00;99.90;;;;;;5018869;28;45243;-57
2023/08/26 01:44:24;;;;;;;1.67;1.58;;;23.00;99.90;;;;;;5022099;28;45658;-57
2023/08/26 01:46:50;;;;;;;2.35;1.52;;;23.00;99.90;;;;;;5020596;28;45224;-57
2023/08/26 01:49:17;;;;;;;2.95;1.70;;;23.00;99.90;;;;;;5025345;28;45101;-57
2023/08/26 01:51:44;;;;;;;1.77;1.35;;;23.00;99.90;;;;;;5016909;28;45291;-57
2023/08/26 01:54:11;;;;;;;2.10;1.17;;;23.00;99.90;;;;;;5026396;28;45071;-57
2023/08/26 01:56:38;;;;;;;1.83;1.40;;;23.00;99.90;;;;;;5025302;28;45243;-57
2023/08/26 01:59:06;;;;;;;1.20;1.10;;;23.00;99.90;;;;;;5023178;28;45143;-57
2023/08/26 02:01:33;;;;;;;1.80;1.40;;;23.00;99.90;;;;;;5025605;28;46115;-57
2023/08/26 02:04:00;;;;;;;2.08;1.25;;;23.00;99.90;;;;;;5022324;28;45152;-57
2023/08/26 02:06:27;;;;;;;1.88;1.40;;;23.00;99.90;;;;;;5024970;28;45156;-57
2023/08/26 02:08:54;;;;;;;1.45;1.10;;;22.90;99.90;;;;;;5025414;28;45293;-57
2023/08/26 02:11:21;;;;;;;1.35;1.25;;;23.00;99.90;;;;;;5023545;28;47471;-57
2023/08/26 02:13:48;;;;;;;1.65;1.30;;;23.00;99.90;;;;;;5025313;28;45203;-57
2023/08/26 02:16:16;;;;;;;1.45;1.10;;;23.00;99.90;;;;;;5018421;28;45367;-57
2023/08/26 02:18:43;;;;;;;1.52;1.27;;;23.00;99.90;;;;;;5024335;28;45119;-57
2023/08/26 02:21:11;;;;;;;1.08;1.00;;;23.00;99.90;;;;;;5025491;28;47020;-57
2023/08/26 02:23:38;;;;;;;2.03;1.00;;;23.00;99.90;;;;;;5023597;28;45941;-57
2023/08/26 02:26:04;;;;;;;1.30;1.20;;;22.90;99.90;;;;;;5022628;28;45213;-57
2023/08/26 02:28:31;;;;;;;1.45;1.05;;;22.90;99.90;;;;;;5025451;28;45136;-57
2023/08/26 02:30:58;;;;;;;1.23;1.05;;;23.00;99.90;;;;;;5022748;28;46234;-57
2023/08/26 02:33:27;;;;;;;1.15;1.02;;;22.90;99.90;;;;;;5015225;28;45259;-57
2023/08/26 02:35:53;;;;;;;1.00;0.90;;;23.00;99.90;;;;;;5020493;28;44620;-57
2023/08/26 02:38:20;;;;;;;1.75;1.00;;;22.90;99.90;;;;;;5011421;28;45076;-57
2023/08/26 02:40:52;;;;;;;1.45;1.17;;;22.90;99.90;;;;;;5019054;28;45249;-57
2023/08/26 02:43:19;;;;;;;1.35;1.02;;;22.90;99.90;;;;;;5023566;28;45103;-57
2023/08/26 02:45:46;;;;;;;0.98;0.82;;;22.90;99.90;;;;;;5021205;28;45169;-57
2023/08/26 02:48:13;;;;;;;1.38;1.00;;;22.90;99.90;;;;;;5021837;28;45333;-57
2023/08/26 02:50:41;;;;;;;0.80;0.75;;;22.90;99.90;;;;;;5017471;28;45125;-57
2023/08/26 02:53:08;;;;;;;1.27;0.80;;;22.90;99.90;;;;;;5024632;28;45184;-57
2023/08/26 02:55:35;;;;;;;2.40;1.10;;;22.90;99.90;;;;;;5024905;28;45287;-57
2023/08/26 02:58:01;;;;;;;2.00;1.00;;;22.90;99.90;;;;;;5023447;28;45259;-57
2023/08/26 03:00:28;;;;;;;1.52;0.77;;;22.90;99.90;;;;;;5023320;28;44975;-57
2023/08/26 03:02:55;;;;;;;1.55;0.82;;;22.90;99.90;;;;;;5018098;28;45347;-57
2023/08/26 03:05:22;;;;;;;1.40;0.90;;;22.90;99.90;;;;;;5023790;28;44763;-57
2023/08/26 03:07:50;;;;;;;1.25;1.00;;;22.90;99.90;;;;;;5023894;28;45287;-57
2023/08/26 03:10:17;;;;;;;1.17;1.00;;;22.90;99.90;;;;;;5022401;28;45091;-57
2023/08/26 03:12:44;;;;;;;2.13;1.00;;;22.90;99.90;;;;;;5020049;28;45247;-57
2023/08/26 03:15:11;;;;;;;2.25;1.02;;;22.90;99.90;;;;;;5023321;28;45085;-57
2023/08/26 03:17:37;;;;;;;0.98;0.77;;;22.90;99.90;;;;;;5020607;28;45214;-57
2023/08/26 03:20:05;;;;;;;1.85;1.10;;;22.90;99.90;;;;;;5022877;28;46285;-57
2023/08/26 03:22:32;;;;;;;1.52;0.80;;;22.90;99.90;;;;;;5013877;28;44627;-57
2023/08/26 03:25:00;;;;;;;1.17;0.90;;;22.90;99.90;;;;;;5022827;28;45126;-57
2023/08/26 03:27:26;;;;;;;1.27;0.90;;;22.90;99.90;;;;;;5024649;28;44620;-57
2023/08/26 03:29:53;;;;;;;1.27;0.90;;;22.90;99.90;;;;;;5022895;28;47122;-57
2023/08/26 03:32:20;;;;;;;1.77;1.00;;;22.90;99.90;;;;;;5011534;28;45148;-57
2023/08/26 03:34:47;;;;;;;0.95;0.80;;;22.90;99.90;;;;;;5025157;28;45175;-57
2023/08/26 03:37:14;;;;;;;1.15;0.90;;;22.90;99.90;;;;;;5017571;28;45195;-57
2023/08/26 03:39:41;;;;;;;1.13;0.80;;;22.90;99.90;;;;;;5015152;28;45092;-57
2023/08/26 03:42:09;;;;;;;3.20;0.82;;;22.90;99.90;;;;;;5020551;28;45016;-57
2023/08/26 03:44:36;;;;;;;1.45;1.08;;;22.90;99.90;;;;;;5024732;28;45220;-57
2023/08/26 03:47:03;;;;;;;1.63;0.90;;;22.90;99.90;;;;;;5014743;28;45103;-57
2023/08/26 03:49:31;;;;;;;3.35;1.17;;;22.90;99.90;;;;;;5022209;28;45157;-57
2023/08/26 03:51:58;;;;;;;2.30;1.13;;;22.90;99.90;;;;;;5015923;28;45219;-57
2023/08/26 03:54:25;;;;;;;1.00;0.80;;;22.90;99.90;;;;;;5024569;28;45242;-57
2023/08/26 03:56:52;;;;;;;1.95;0.90;;;22.90;99.90;;;;;;5019782;28;45229;-57
2023/08/26 03:59:20;;;;;;;2.05;1.00;;;22.90;99.90;;;;;;5023477;28;45282;-57
2023/08/26 04:01:47;;;;;;;0.75;0.73;;;22.90;99.90;;;;;;5021950;28;44735;-57
2023/08/26 04:04:15;;;;;;;1.08;0.80;;;22.90;99.90;;;;;;5021761;28;45381;-57
2023/08/26 04:06:42;;;;;;;0.90;0.63;;;22.90;99.90;;;;;;5024603;28;45398;-57
2023/08/26 04:09:09;;;;;;;1.38;0.82;;;22.90;99.90;;;;;;5022755;28;47039;-57
2023/08/26 04:11:35;;;;;;;1.77;0.88;;;22.90;99.90;;;;;;5015563;28;45179;-57
2023/08/26 04:14:02;;;;;;;2.88;0.93;;;22.90;99.90;;;;;;5020114;28;45206;-57
2023/08/26 04:16:30;;;;;;;1.13;0.75;;;22.90;99.90;;;;;;5013565;28;45106;-57
2023/08/26 04:18:57;;;;;;;1.65;0.75;;;22.90;99.90;;;;;;5020994;28;47003;-57
2023/08/26 04:21:24;;;;;;;1.90;1.02;;;22.90;99.90;;;;;;5020389;28;44792;-57
2023/08/26 04:23:51;;;;;;;2.17;1.00;;;22.90;99.90;;;;;;5020948;28;45146;-57
2023/08/26 04:26:17;;;;;;;1.20;0.90;;;22.90;99.90;;;;;;5023769;28;45174;-57
2023/08/26 04:28:44;;;;;;;2.10;1.00;;;22.90;99.90;;;;;;5021774;28;48213;-57
2023/08/26 04:31:11;;;;;;;1.30;0.90;;;22.90;99.90;;;;;;5021591;28;44706;-57
2023/08/26 04:33:40;;;;;;;2.78;1.00;;;22.90;99.90;;;;;;5017794;28;45286;-57
2023/08/26 04:36:07;;;;;;;0.93;0.63;;;22.90;99.90;;;;;;5022972;28;45546;-57
2023/08/26 04:38:34;;;;;;;1.75;0.90;;;22.90;99.90;;;;;;5016208;28;45160;-57
2023/08/26 04:41:00;;;;;;;1.42;0.90;;;22.90;99.90;;;;;;5012017;28;44685;-57
2023/08/26 04:43:28;;;;;;;0.93;0.73;;;22.90;99.90;;;;;;5007490;28;45168;-57
2023/08/26 04:45:55;;;;;;;0.95;0.80;;;22.90;99.90;;;;;;5006902;28;45206;-57
2023/08/26 04:48:22;;;;;;;0.77;0.70;;;22.90;99.90;;;;;;5021345;28;46249;-57
2023/08/26 04:50:50;;;;;;;2.10;0.70;;;22.90;99.90;;;;;;5022943;28;45159;-57
2023/08/26 04:53:17;;;;;;;1.08;0.75;;;22.90;99.90;;;;;;5015208;28;45056;-57
2023/08/26 04:55:43;;;;;;;1.15;0.60;;;22.90;99.90;;;;;;5013705;28;45233;-57
2023/08/26 04:58:10;;;;;;;1.15;0.70;;;22.90;99.90;;;;;;5022619;28;45245;-57
2023/08/26 05:00:42;;;;;;;1.40;0.80;;;22.90;99.90;;;;;;5020919;28;45250;-57
2023/08/26 05:03:08;;;;;;;1.58;0.80;;;22.90;99.90;;;;;;5018028;28;45080;-57
2023/08/26 05:05:35;;;;;;;1.23;0.90;;;22.90;99.90;;;;;;5014728;28;45146;-57
2023/08/26 05:08:04;;;;;;;0.70;0.60;;;22.90;99.90;;;;;;5018566;28;46403;-57
2023/08/26 05:10:30;;;;;;;1.00;0.75;;;22.90;99.90;;;;;;5019323;28;46060;-57
2023/08/26 05:12:57;;;;;;;1.17;0.77;;;22.90;99.90;;;;;;5020942;28;45171;-57
2023/08/26 05:15:26;;;;;;;1.42;0.73;;;22.90;99.90;;;;;;5014268;28;45108;-57
2023/08/26 05:17:53;;;;;;;1.50;0.77;;;22.90;99.90;;;;;;5010149;28;46158;-57
2023/08/26 05:20:20;;;;;;;1.52;0.70;;;22.90;99.90;;;;;;5010931;28;45059;-57
2023/08/26 05:22:46;;;;;;;2.10;0.80;;;22.90;99.90;;;;;;5015908;28;45218;-57
2023/08/26 05:25:15;;;;;;;1.67;0.93;;;22.90;99.90;;;;;;5022285;28;44717;-57
2023/08/26 05:27:42;;;;;;;1.45;0.80;;;22.90;99.90;;;;;;5020397;28;46325;-57
2023/08/26 05:30:09;;;;;;;1.30;0.70;;;22.90;99.90;;;;;;5018225;28;44993;-57
2023/08/26 05:32:36;;;;;;;1.80;0.70;;;22.90;99.90;;;;;;5017828;28;45243;-57
2023/08/26 05:35:03;;;;;;;2.58;0.80;;;22.90;99.90;;;;;;5021359;28;44889;-57
2023/08/26 05:37:30;;;;;;;1.48;1.00;;;22.90;99.90;;;;;;5014045;28;48170;-57
2023/08/26 05:39:57;;;;;;;0.77;0.60;;;22.90;99.90;;;;;;5021410;28;45100;-57
2023/08/26 05:42:25;;;;;;;1.73;0.90;;;22.90;99.90;;;;;;5017474;28;45271;-57
2023/08/26 05:44:52;;;;;;;0.75;0.50;;;22.90;99.90;;;;;;5014151;28;45168;-57
2023/08/26 05:47:18;;;;;;;2.17;0.93;;;22.90;99.90;;;;;;5021834;28;47107;-57
2023/08/26 05:49:45;;;;;;;0.90;0.65;;;22.90;99.90;;;;;;5015196;28;45164;-57
2023/08/26 05:52:12;;;;;;;1.15;0.50;;;22.90;99.90;;;;;;5014712;28;45103;-57
2023/08/26 05:54:39;;;;;;;0.98;0.60;;;22.90;99.90;;;;;;5014977;28;45335;-57
2023/08/26 05:57:06;;;;;;;1.92;0.88;;;22.90;99.90;;;;;;5020811;28;46316;-57
2023/08/26 05:59:34;;;;;;;1.05;0.57;;;22.90;99.90;;;;;;5023021;28;45118;-57
2023/08/26 06:02:01;;;;;;;0.98;0.70;;;22.90;99.90;;;;;;5021861;28;45103;-57
2023/08/26 06:04:28;;;;;;;1.50;0.50;;;22.90;99.90;;;;;;5020033;28;45475;-57
2023/08/26 06:06:55;;;;;;;1.33;0.68;;;22.90;99.90;;;;;;5019887;28;45181;-57
2023/08/26 06:09:22;;;;;;;1.38;0.50;;;22.90;99.90;;;;;;5026067;28;44683;-58
2023/08/26 06:11:49;;;;;;;0.73;0.73;;;22.90;99.90;;;;;;5020390;28;45179;-57
2023/08/26 06:14:16;;;;;;;0.95;0.50;;;22.90;99.90;;;;;;5021620;28;45415;-57
2023/08/26 06:16:44;;;;;;;0.80;0.50;;;22.90;99.90;;;;;;5019332;28;48483;-57
2023/08/26 06:19:11;;;;;;;0.52;0.47;;;22.90;99.90;;;;;;5022404;28;45049;-57
2023/08/26 06:21:38;;;;;;;0.77;0.60;;;22.90;99.90;;;;;;5021837;28;45142;-57
2023/08/26 06:24:05;;;;;;;0.82;0.55;;;22.90;99.90;;;;;;5020826;28;45335;-57
2023/08/26 06:26:32;;;;;;;0.50;0.50;;;22.90;99.90;;;;;;5012310;28;45163;-58
2023/08/26 06:28:59;;;;;;;0.57;0.57;;;22.90;99.90;;;;;;5016421;28;45205;-57
2023/08/26 06:31:25;;;;;;;1.02;0.50;;;22.90;99.90;;;;;;5017440;28;45227;-57
2023/08/26 06:33:54;;;;;;;0.50;0.50;;;22.90;99.90;;;;;;5016998;28;45187;-57
2023/08/26 06:36:20;;;;;;;1.02;0.50;;;22.90;99.90;;;;;;5017098;28;45314;-57
2023/08/26 06:38:47;;;;;;;0.50;0.47;;;22.90;99.90;;;;;;5018312;28;45181;-57
2023/08/26 06:41:14;;;;;;;2.10;0.50;;;22.90;99.90;;;;;;5015862;28;45249;-57
2023/08/26 06:43:41;;;;;;;1.10;0.60;;;22.90;99.90;;;;;;5016703;28;45162;-57
2023/08/26 06:46:07;;;;;;;1.15;0.82;;;22.90;99.90;;;;;;5021129;28;47588;-57
2023/08/26 06:48:34;;;;;;;3.70;0.75;;;22.90;99.90;;;;;;5015702;28;45239;-57
2023/08/26 06:51:02;;;;;;;0.40;0.40;;;22.90;99.90;;;;;;5023093;28;45185;-57
2023/08/26 06:53:29;;;;;;;0.88;0.63;;;22.90;99.90;;;;;;5024472;28;45094;-57
2023/08/26 06:55:56;;;;;;;0.93;0.60;;;22.90;99.90;;;;;;5016603;28;45266;-57
2023/08/26 06:58:23;;;;;;;0.82;0.50;;;22.90;99.90;;;;;;5020318;28;45132;-57
2023/08/26 07:00:50;;;;;;;0.70;0.50;;;22.90;99.90;;;;;;5018639;28;45179;-57
2023/08/26 07:03:17;;;;;;;1.45;0.63;;;22.90;99.90;;;;;;5022274;28;44737;-56
2023/08/26 07:05:45;;;;;;;0.52;0.40;;;22.90;99.90;;;;;;5018282;28;45155;-56
2023/08/26 07:08:14;;;;;;;0.60;0.40;;;22.90;99.90;;;;;;5014869;28;46358;-56
2023/08/26 07:10:41;;;;;;;0.52;0.52;;;22.90;99.90;;;;;;5020316;28;45088;-55
2023/08/26 07:13:08;;;;;;;0.63;0.52;;;22.90;99.90;;;;;;5021676;28;45123;-55
2023/08/26 07:15:35;;;;;;;1.50;0.60;;;22.90;99.90;;;;;;5019842;28;45369;-56
2023/08/26 07:18:02;;;;;;;0.60;0.60;;;22.90;99.90;;;;;;5021009;28;45219;-56
2023/08/26 07:20:29;;;;;;;0.85;0.50;;;22.90;99.90;;;;;;5018865;28;45351;-57
2023/08/26 07:22:56;;;;;;;0.57;0.50;;;23.00;99.90;;;;;;5016890;28;45236;-57
2023/08/26 07:25:24;;;;;;;0.38;0.38;;;23.00;99.90;;;;;;5020945;28;45313;-57
2023/08/26 07:27:51;;;;;;;1.17;0.57;;;22.90;99.90;;;;;;5022958;28;44631;-57
2023/08/26 07:30:18;;;;;;;0.88;0.60;;;22.90;99.90;;;;;;5023660;28;45115;-57
2023/08/26 07:32:44;;;;;;;0.50;0.40;;;23.00;99.90;;;;;;5020064;28;45407;-57
2023/08/26 07:35:11;;;;;;;1.00;0.70;;;23.00;99.90;;;;;;5019954;28;45313;-57
2023/08/26 07:37:38;;;;;;;1.17;0.80;;;23.00;99.90;;;;;;5023012;28;45092;-57
2023/08/26 07:40:06;;;;;;;0.45;0.45;;;22.90;99.90;;;;;;5022301;28;45207;-57
2023/08/26 07:42:35;;;;;;;1.33;0.43;;;23.00;99.90;;;;;;5019912;28;45150;-57
2023/08/26 07:45:02;;;;;;;0.65;0.40;;;23.00;99.90;;;;;;5024030;28;47303;-57
2023/08/26 07:47:29;;;;;;;1.05;0.50;;;22.90;99.90;;;;;;5017798;28;45163;-56
2023/08/26 07:49:56;;;;;;;1.40;0.38;;;22.90;99.90;;;;;;5024240;28;45232;-57
2023/08/26 07:52:23;;;;;;;1.52;0.55;;;22.90;99.90;;;;;;5012771;28;45400;-57
2023/08/26 07:54:49;;;;;;;0.45;0.40;;;22.90;99.90;;;;;;5021148;28;46476;-57
2023/08/26 07:57:16;;;;;;;0.65;0.50;;;23.00;99.90;;;;;;5023836;28;45282;-58
2023/08/26 07:59:44;;;;;;;0.60;0.40;;;23.00;99.90;;;;;;5021669;28;45131;-57
2023/08/26 08:02:12;;;;;;;0.57;0.40;;;23.00;99.90;;;;;;5012396;28;45065;-56
2023/08/26 08:04:39;;;;;;;1.10;0.43;;;23.00;99.90;;;;;;5022824;28;47583;-56
2023/08/26 08:07:05;;;;;;;1.42;0.45;;;23.00;99.90;;;;;;5021848;28;45459;-57
2023/08/26 08:09:32;;;;;;;1.48;0.60;;;23.00;99.90;;;;;;5023758;28;45188;-57
2023/08/26 08:11:59;;;;;;;0.73;0.40;;;23.00;99.90;;;;;;5016384;28;45270;-57
2023/08/26 08:14:26;;;;;;;0.95;0.50;;;23.00;99.90;;;;;;5017495;28;46182;-57
2023/08/26 08:16:54;;;;;;;0.75;0.47;;;23.00;99.90;;;;;;5013826;28;45074;-58
2023/08/26 08:19:20;;;;;;;0.70;0.50;;;23.00;99.90;;;;;;5018788;28;45253;-57
2023/08/26 08:21:48;;;;;;;0.55;0.40;;;23.00;99.90;;;;;;5017571;28;45252;-57
2023/08/26 08:24:15;;;;;;;0.73;0.57;;;23.00;99.90;;;;;;5006863;28;47235;-57
2023/08/26 08:26:43;;;;;;;1.17;0.52;;;23.00;99.90;;;;;;5019966;28;45273;-56
2023/08/26 08:29:10;;;;;;;0.47;0.35;;;23.00;99.90;;;;;;5018941;28;45207;-56
2023/08/26 08:31:37;;;;;;;1.02;0.57;;;23.00;99.90;;;;;;5005406;28;44886;-55
2023/08/26 08:34:05;;;;;;;0.77;0.38;;;23.00;99.90;;;;;;5001462;28;46607;-56
2023/08/26 08:36:32;;;;;;;1.00;0.50;;;23.00;99.90;;;;;;5020735;28;45297;-56
2023/08/26 08:38:59;;;;;;;1.25;0.68;;;23.00;99.90;;;;;;5015809;28;45080;-57
2023/08/26 08:41:26;;;;;;;1.95;0.63;;;23.00;99.90;;;;;;5009946;28;44782;-57
2023/08/26 08:43:59;;;;;;;0.75;0.35;;;23.00;99.90;;;;;;5018473;28;47841;-57
2023/08/26 08:46:27;;;;;;;1.02;0.50;;;23.00;99.90;;;;;;5011412;28;45215;-57
2023/08/26 08:48:54;;;;;;;2.10;0.68;;;23.00;99.90;;;;;;5014813;28;45187;-58
2023/08/26 08:51:27;;;;;;;0.57;0.50;;;23.00;99.90;;;;;;5022396;28;45232;-58
2023/08/26 08:53:54;;;;;;;1.58;0.60;;;23.00;99.90;;;;;;5010918;28;45191;-58
2023/08/26 08:56:23;;;;;;;1.15;0.60;;;23.00;99.90;;;;;;5016069;28;45579;-57
2023/08/26 08:58:51;;;;;;;1.58;0.50;;;23.00;99.90;;;;;;5013012;28;44615;-58
2023/08/26 09:01:19;;;;;;;0.80;0.63;;;23.00;99.90;;;;;;5022092;28;45179;-57
2023/08/26 09:03:47;;;;;;;0.70;0.40;;;23.00;99.90;;;;;;5018149;28;45175;-57
2023/08/26 09:06:14;;;;;;;0.98;0.40;;;23.00;99.90;;;;;;5021324;28;45190;-58
2023/08/26 09:08:43;;;;;;;0.75;0.50;;;23.00;99.90;;;;;;5021709;28;45268;-58
2023/08/26 09:11:10;;;;;;;1.10;0.63;;;23.00;99.90;;;;;;5015227;28;44794;-57
2023/08/26 09:13:37;;;;;;;0.82;0.57;;;23.00;99.90;;;;;;5020951;28;46375;-56
2023/08/26 09:16:04;;;;;;;1.17;0.50;;;23.00;99.90;;;;;;5019496;28;45228;-56
2023/08/26 09:18:37;;;;;;;1.35;0.30;;;23.00;99.90;;;;;;5019981;28;45140;-57
2023/08/26 09:21:09;;;;;;;0.68;0.45;;;23.00;99.90;;;;;;5020589;28;45249;-57
2023/08/26 09:23:44;;;;;;;0.40;0.40;;;23.00;99.90;;;;;;5020355;28;46067;-57
2023/08/26 09:26:11;;;;;;;0.68;0.50;;;23.00;99.90;;;;;;5020973;28;45151;-56
2023/08/26 09:28:38;;;;;;;1.17;0.40;;;23.00;99.90;;;;;;5023427;28;45226;-56
2023/08/26 09:31:06;;;;;;;1.13;0.50;;;23.00;99.90;;;;;;5023109;28;45546;-57
2023/08/26 09:33:33;;;;;;;0.60;0.50;;;23.10;99.90;;;;;;5019869;28;45184;-57
2023/08/26 09:36:00;;;;;;;1.95;0.50;;;23.00;99.90;;;;;;5022513;28;44625;-57
2023/08/26 09:38:31;;;;;;;0.68;0.40;;;23.00;99.90;;;;;;5018277;28;45122;-58
2023/08/26 09:41:00;;;;;;;0.55;0.50;;;23.10;99.90;;;;;;5007239;28;45159;-57
2023/08/26 09:43:27;;;;;;;0.47;0.30;;;23.10;99.90;;;;;;5004792;28;46078;-57
2023/08/26 09:45:57;;;;;;;0.40;0.40;;;23.10;99.90;;;;;;5014083;28;45181;-55
2023/08/26 09:48:25;;;;;;;0.43;0.30;;;23.10;99.90;;;;;;5009988;28;45160;-57
2023/08/26 09:50:52;;;;;;;1.40;0.40;;;23.10;99.90;;;;;;5007078;28;45178;-57
2023/08/26 09:53:30;;;;;;;0.75;0.40;;;23.10;99.90;;;;;;5007838;28;46107;-58
2023/08/26 09:55:59;;;;;;;0.20;0.20;;;23.10;99.90;;;;;;5005275;28;44929;-58
2023/08/26 09:58:27;;;;;;;0.57;0.40;;;23.10;99.90;;;;;;5006958;28;44670;-57
2023/08/26 10:00:54;;;;;;;0.70;0.50;;;23.10;99.90;;;;;;5007050;28;45147;-57
2023/08/26 10:03:24;;;;;;;0.95;0.50;;;23.20;99.90;;;;;;5021111;28;46195;-57
2023/08/26 10:05:54;;;;;;;1.10;0.40;;;23.10;99.90;;;;;;5026244;28;45120;-57
2023/08/26 10:08:26;;;;;;;0.95;0.60;;;23.10;99.90;;;;;;5026490;28;45176;-57
2023/08/26 10:10:54;;;;;;;1.05;0.43;;;23.10;99.90;;;;;;5018958;28;44670;-57
2023/08/26 10:13:25;;;;;;;1.15;0.30;;;23.10;99.90;;;;;;5022522;28;45123;-57
2023/08/26 10:15:53;;;;;;;0.70;0.40;;;23.10;99.90;;;;;;5025553;28;45758;-58
2023/08/26 10:18:29;;;;;;;0.82;0.50;;;23.10;99.90;;;;;;5024958;28;45052;-57
2023/08/26 10:20:57;;;;;;;1.70;0.30;;;23.10;99.90;;;;;;5025816;28;45033;-57
2023/08/26 10:23:25;;;;;;;0.60;0.40;;;23.10;99.90;;;;;;5022928;28;45247;-57
2023/08/26 10:25:53;;;;;;;0.85;0.50;;;23.10;99.90;;;;;;5018090;28;45302;-57
2023/08/26 10:28:21;;;;;;;0.57;0.52;;;23.10;99.90;;;;;;5024023;28;45052;-57
2023/08/26 10:30:50;;;;;;;0.85;0.45;;;23.10;99.90;;;;;;5025655;28;45448;-56
2023/08/26 10:33:18;;;;;;;0.70;0.50;;;23.10;99.90;;;;;;5022830;28;45589;-56
2023/08/26 10:35:58;;;;;;;0.80;0.30;;;23.10;99.90;;;;;;5025294;28;45298;-56
2023/08/26 10:38:25;;;;;;;0.60;0.22;;;23.10;99.90;;;;;;5023916;28;45115;-57
2023/08/26 10:41:08;;;;;;;3.20;0.50;;;23.10;99.90;;;;;;5024314;28;45243;-57
2023/08/26 10:43:35;;;;;;;0.43;0.30;;;23.10;99.90;;;;;;5024934;28;46281;-57
2023/08/26 10:46:03;;;;;;;1.73;0.50;;;23.10;99.90;;;;;;5022699;28;45190;-57
2023/08/26 10:48:30;;;;;;;0.38;0.38;;;23.10;99.90;;;;;;5021958;28;45091;-57
2023/08/26 10:51:01;;;;;;;0.90;0.50;;;23.10;99.90;;;;;;5005914;28;45089;-57
2023/08/26 10:53:28;;;;;;;0.73;0.30;;;23.10;99.90;;;;;;5015452;28;45261;-57
2023/08/26 10:56:12;;;;;;;0.95;0.50;;;23.10;99.90;;;;;;5024092;28;45317;-57
2023/08/26 10:58:43;;;;;;;1.23;0.68;;;23.10;99.90;;;;;;5023533;28;45176;-57
2023/08/26 11:01:12;;;;;;;1.60;0.50;;;23.10;99.90;;;;;;5019666;28;45449;-57
2023/08/26 11:03:39;;;;;;;0.60;0.40;;;23.10;99.90;;;;;;5019624;28;45280;-57
2023/08/26 11:06:08;;;;;;;0.30;0.20;;;23.10;99.90;;;;;;5011288;28;45383;-57
2023/08/26 11:08:37;;;;;;;0.30;0.30;;;23.10;99.90;;;;;;5025041;28;45269;-57
2023/08/26 11:11:04;;;;;;;0.77;0.40;;;23.10;99.90;;;;;;5025099;28;44706;-57
2023/08/26 11:13:32;;;;;;;1.25;0.77;;;23.10;99.90;;;;;;5017546;28;47257;-57
2023/08/26 11:15:59;;;;;;;1.35;0.60;;;23.10;99.90;;;;;;5022891;28;45163;-57
2023/08/26 11:18:27;;;;;;;0.98;0.63;;;23.10;99.90;;;;;;5023362;28;45178;-57
2023/08/26 11:20:54;;;;;;;0.82;0.40;;;23.10;99.90;;;;;;5025083;28;45082;-57
2023/08/26 11:23:25;;;;;;;0.52;0.47;;;23.20;99.90;;;;;;5021009;28;46560;-57
2023/08/26 11:25:51;;;;;;;1.15;0.43;;;23.10;99.90;;;;;;5016966;28;45950;-57
2023/08/26 11:28:18;;;;;;;0.35;0.30;;;23.20;99.90;;;;;;5024808;28;45168;-57
2023/08/26 11:30:46;;;;;;;0.65;0.40;;;23.10;99.90;;;;;;5024958;28;45247;-57
2023/08/26 11:33:15;;;;;;;0.68;0.40;;;23.10;99.90;;;;;;5021860;28;46840;-57
2023/08/26 11:35:44;;;;;;;0.45;0.35;;;23.10;99.90;;;;;;5022530;28;44694;-57
2023/08/26 11:38:12;;;;;;;0.60;0.50;;;23.10;99.90;;;;;;5019202;28;45188;-57
2023/08/26 11:40:40;;;;;;;1.17;0.50;;;23.10;99.90;;;;;;5021240;28;45216;-57
2023/08/26 11:43:07;;;;;;;0.50;0.40;;;23.20;99.90;;;;;;5015164;28;45169;-57
2023/08/26 11:45:35;;;;;;;0.73;0.52;;;23.10;99.90;;;;;;5022199;28;45207;-57
2023/08/26 11:48:02;;;;;;;0.93;0.50;;;23.10;99.90;;;;;;5022574;28;45110;-57
2023/08/26 11:50:29;;;;;;;1.00;0.43;;;23.20;99.90;;;;;;5024215;28;45146;-57
2023/08/26 11:53:01;;;;;;;0.30;0.30;;;23.10;99.90;;;;;;5021225;28;48010;-57
2023/08/26 11:55:28;;;;;;;0.35;0.32;;;23.20;99.90;;;;;;5024403;28;45064;-57
2023/08/26 11:57:55;;;;;;;1.50;0.40;;;23.10;99.90;;;;;;5022082;28;45361;-57
2023/08/26 12:00:23;;;;;;;0.90;0.50;;;23.10;99.90;;;;;;5021845;28;45188;-57
2023/08/26 12:02:51;;;;;;;0.25;0.20;;;23.10;99.90;;;;;;5021059;28;45491;-57
2023/08/26 12:05:19;;;;;;;1.08;0.40;;;23.20;99.90;;;;;;5024633;28;45492;-57
2023/08/26 12:07:47;;;;;;;0.30;0.30;;;23.10;99.90;;;;;;5021784;28;45349;-57
2023/08/26 12:10:17;;;;;;;0.38;0.30;;;23.20;99.90;;;;;;5024258;28;45260;-57
2023/08/26 12:12:46;;;;;;;0.38;0.38;;;23.10;99.90;;;;;;5022600;28;46581;-57
2023/08/26 12:15:15;;;;;;;0.40;0.30;;;23.20;99.90;;;;;;5017413;28;45089;-58
2023/08/26 12:17:46;;;;;;;1.33;0.60;;;23.20;99.90;;;;;;5020687;28;45289;-57
2023/08/26 12:20:24;;;;;;;0.70;0.35;;;23.20;99.90;;;;;;5024587;28;45258;-57
2023/08/26 12:22:51;;;;;;;0.30;0.30;;;23.20;99.90;;;;;;5022780;28;47345;-57
2023/08/26 12:25:25;;;;;;;1.23;0.45;;;23.20;99.90;;;;;;5015140;28;44681;-57
2023/08/26 12:27:52;;;;;;;0.40;0.40;;;23.20;99.90;;;;;;5016042;28;45185;-57
2023/08/26 12:30:19;;;;;;;0.35;0.30;;;23.20;99.90;;;;;;5022220;28;45139;-57
2023/08/26 12:32:46;;;;;;;1.30;0.47;;;23.20;99.90;;;;;;5020152;28;45232;-57
2023/08/26 12:35:13;;;;;;;0.32;0.30;;;23.20;99.90;;;;;;5023800;28;45932;-57
2023/08/26 12:37:40;;;;;;;0.43;0.40;;;23.20;99.90;;;;;;5023882;28;45056;-57
2023/08/26 12:40:08;;;;;;;1.08;0.45;;;23.20;99.90;;;;;;5021811;28;45118;-57
2023/08/26 12:42:36;;;;;;;0.40;0.35;;;23.20;99.90;;;;;;5019950;28;45296;-57
2023/08/26 12:45:04;;;;;;;0.80;0.40;;;23.20;99.90;;;;;;5017366;28;44763;-57
2023/08/26 12:47:30;;;;;;;0.60;0.30;;;23.20;99.90;;;;;;5020703;28;44656;-57
2023/08/26 12:49:58;;;;;;;0.75;0.40;;;23.20;99.90;;;;;;5022490;28;44818;-57